Time;durP1;ratioP1;P1;durP2;ratioP2;P2;SDS_P1;SDS_P2;PMS_P1;PMS_P2;Temp;Humidity;BMP_temperature;BMP_pressure;BME280_temperature;BME280_humidity;BME280_pressure;Samples;Min_cycle;Max_cycle;Signal;HPM_P1;HPM_P2
2021/12/24 00:00:10;;;;;;;0.30;0.30;;;6.90;99.90;;;;;;5061165;28;20948;-83
2021/12/24 00:02:37;;;;;;;0.30;0.30;;;7.00;99.90;;;;;;5053090;28;20476;-86
2021/12/24 00:05:07;;;;;;;0.47;0.40;;;7.00;99.90;;;;;;5056130;28;20450;-87
2021/12/24 00:07:34;;;;;;;0.30;0.20;;;7.10;99.90;;;;;;5062575;28;20456;-87
2021/12/24 00:10:01;;;;;;;0.30;0.30;;;7.10;99.90;;;;;;5073520;28;20481;-87
2021/12/24 00:12:31;;;;;;;0.83;0.83;;;7.10;99.90;;;;;;5073330;28;20464;-87
2021/12/24 00:15:03;;;;;;;0.30;0.20;;;7.30;99.90;;;;;;5067458;28;20790;-87
2021/12/24 00:17:33;;;;;;;0.30;0.30;;;7.30;99.90;;;;;;5073043;28;20440;-87
2021/12/24 00:20:18;;;;;;;0.40;0.30;;;7.40;99.90;;;;;;5073276;28;20447;-87
2021/12/24 00:36:39;;;;;;;0.30;0.30;;;7.30;99.90;;;;;;5074459;28;20495;-87
2021/12/24 00:39:07;;;;;;;0.30;0.20;;;7.30;99.90;;;;;;5076782;28;20797;-87
2021/12/24 00:41:34;;;;;;;0.30;0.30;;;7.20;99.90;;;;;;5075513;28;20464;-87
2021/12/24 00:44:01;;;;;;;0.30;0.20;;;7.10;99.90;;;;;;5077444;28;20452;-87
2021/12/24 00:46:28;;;;;;;0.30;0.20;;;7.10;99.90;;;;;;5059355;28;20854;-87
2021/12/24 00:48:57;;;;;;;0.30;0.30;;;7.00;99.90;;;;;;5056535;28;20478;-87
2021/12/24 00:51:31;;;;;;;0.30;0.30;;;7.00;99.90;;;;;;5062440;28;21014;-86
2021/12/24 00:56:44;;;;;;;2.10;0.40;;;6.90;99.90;;;;;;5062498;28;20509;-86
2021/12/24 00:59:10;;;;;;;0.40;0.30;;;6.90;99.90;;;;;;5057167;28;20556;-87
2021/12/24 01:01:37;;;;;;;1.27;0.40;;;7.00;99.90;;;;;;5056395;28;20458;-87
2021/12/24 01:04:04;;;;;;;0.30;0.30;;;7.00;99.90;;;;;;5056976;28;20956;-87
2021/12/24 01:06:31;;;;;;;0.30;0.30;;;7.10;99.90;;;;;;5056610;28;20453;-87
2021/12/24 01:08:58;;;;;;;0.50;0.40;;;7.00;99.90;;;;;;5057174;28;20481;-87
2021/12/24 01:11:27;;;;;;;0.30;0.30;;;7.00;99.90;;;;;;5056920;28;20473;-87
2021/12/24 01:13:55;;;;;;;0.30;0.30;;;6.90;99.90;;;;;;5057028;28;20528;-87
2021/12/24 01:16:27;;;;;;;0.50;0.40;;;6.90;99.90;;;;;;5061458;28;20448;-87
2021/12/24 01:19:01;;;;;;;0.30;0.30;;;6.80;99.90;;;;;;5067676;28;20535;-87
2021/12/24 01:21:43;;;;;;;0.30;0.20;;;6.80;99.90;;;;;;5056868;28;20709;-87
2021/12/24 01:24:15;;;;;;;0.30;0.20;;;6.80;99.90;;;;;;5061794;28;20504;-87
2021/12/24 01:26:49;;;;;;;0.30;0.30;;;6.70;99.90;;;;;;5057150;28;20446;-87
2021/12/24 01:29:48;;;;;;;0.30;0.20;;;6.60;99.90;;;;;;5057326;28;20909;-86
2021/12/24 01:38:08;;;;;;;0.40;0.30;;;6.70;99.90;;;;;;5064158;28;20570;-86
2021/12/24 01:40:50;;;;;;;0.30;0.20;;;6.70;99.90;;;;;;5061697;28;20449;-87
2021/12/24 01:43:16;;;;;;;0.30;0.20;;;6.70;99.90;;;;;;5074958;28;20524;-87
2021/12/24 01:45:47;;;;;;;0.87;0.30;;;6.70;99.90;;;;;;5073499;28;20474;-87
2021/12/24 01:48:14;;;;;;;0.30;0.20;;;6.60;99.90;;;;;;5056140;28;20674;-87
2021/12/24 01:50:42;;;;;;;0.30;0.30;;;6.70;99.90;;;;;;5055938;28;20482;-87
2021/12/24 01:53:10;;;;;;;0.90;0.30;;;6.60;99.90;;;;;;5055857;28;20462;-86
2021/12/24 01:55:38;;;;;;;0.33;0.27;;;6.70;99.90;;;;;;5055917;28;20453;-87
2021/12/24 01:58:05;;;;;;;0.30;0.30;;;6.70;99.90;;;;;;5055511;28;20438;-87
2021/12/24 02:00:36;;;;;;;0.30;0.30;;;6.80;99.90;;;;;;5056020;28;20445;-87
2021/12/24 02:03:05;;;;;;;0.40;0.30;;;6.80;99.90;;;;;;5055374;28;20462;-87
2021/12/24 02:05:32;;;;;;;0.40;0.40;;;6.80;99.90;;;;;;5055763;28;20445;-87
2021/12/24 02:07:59;;;;;;;0.40;0.40;;;6.70;99.90;;;;;;5055344;28;20438;-87
2021/12/24 02:10:26;;;;;;;0.30;0.27;;;6.80;99.90;;;;;;5055544;28;20476;-87
2021/12/24 02:12:54;;;;;;;0.30;0.30;;;6.70;99.90;;;;;;5055258;28;20962;-87
2021/12/24 02:15:29;;;;;;;0.30;0.20;;;6.70;99.90;;;;;;5055803;28;20883;-86
2021/12/24 02:29:07;;;;;;;0.30;0.30;;;6.70;99.90;;;;;;5059897;28;20492;-86
2021/12/24 02:31:34;;;;;;;0.30;0.30;;;6.70;99.90;;;;;;5074819;28;20475;-87
2021/12/24 02:34:01;;;;;;;0.40;0.40;;;6.70;99.90;;;;;;5063402;28;20453;-87
2021/12/24 02:36:29;;;;;;;0.37;0.30;;;6.70;99.90;;;;;;5065581;28;20477;-87
2021/12/24 02:38:56;;;;;;;0.30;0.20;;;6.60;99.90;;;;;;5060125;28;20441;-87
2021/12/24 02:41:23;;;;;;;0.30;0.30;;;6.60;99.90;;;;;;5061420;28;20833;-87
2021/12/24 02:43:51;;;;;;;0.30;0.20;;;6.70;99.90;;;;;;5057148;28;20456;-87
2021/12/24 02:46:27;;;;;;;0.40;0.30;;;6.70;99.90;;;;;;5058751;28;20449;-87
2021/12/24 02:49:05;;;;;;;0.30;0.20;;;6.80;99.90;;;;;;5060021;28;20536;-87
2021/12/24 02:54:19;;;;;;;0.30;0.30;;;6.80;99.90;;;;;;5065584;28;20432;-87
2021/12/24 02:56:51;;;;;;;0.30;0.30;;;6.80;99.90;;;;;;5075331;28;20449;-87
2021/12/24 02:59:24;;;;;;;0.30;0.20;;;6.80;99.90;;;;;;5078119;28;20431;-87
2021/12/24 03:01:53;;;;;;;0.30;0.20;;;6.80;99.90;;;;;;5068061;28;20473;-84
2021/12/24 03:04:20;;;;;;;0.30;0.30;;;6.80;99.90;;;;;;5064415;28;20976;-86
2021/12/24 03:06:51;;;;;;;0.37;0.37;;;6.80;99.90;;;;;;5056182;28;20450;-87
2021/12/24 03:09:19;;;;;;;0.30;0.20;;;6.80;99.90;;;;;;5075172;28;20459;-87
2021/12/24 03:11:48;;;;;;;0.30;0.20;;;6.90;99.90;;;;;;5055876;28;20548;-87
2021/12/24 03:14:18;;;;;;;0.40;0.30;;;6.90;99.90;;;;;;5057904;28;20454;-87
2021/12/24 03:16:51;;;;;;;0.40;0.30;;;6.90;99.90;;;;;;5061056;28;20823;-87
2021/12/24 03:19:19;;;;;;;0.30;0.30;;;7.00;99.90;;;;;;5054837;28;20446;-87
2021/12/24 03:21:53;;;;;;;0.30;0.30;;;6.90;99.90;;;;;;5062108;28;20462;-86
2021/12/24 03:24:36;;;;;;;0.30;0.20;;;6.90;99.90;;;;;;5058555;28;20476;-87
2021/12/24 03:27:04;;;;;;;0.30;0.30;;;6.90;99.90;;;;;;5068788;28;20853;-87
2021/12/24 03:29:31;;;;;;;0.60;0.30;;;6.90;99.90;;;;;;5074090;28;20476;-87
2021/12/24 03:31:58;;;;;;;0.30;0.30;;;6.90;99.90;;;;;;5073562;28;20461;-86
2021/12/24 03:34:25;;;;;;;0.30;0.30;;;6.90;99.90;;;;;;5071647;28;20532;-87
2021/12/24 03:36:52;;;;;;;0.30;0.20;;;6.90;99.90;;;;;;5054357;28;20492;-87
2021/12/24 03:39:20;;;;;;;0.30;0.20;;;6.80;99.90;;;;;;5055916;28;20461;-87
2021/12/24 03:41:47;;;;;;;0.30;0.30;;;6.80;99.90;;;;;;5073581;28;20496;-87
2021/12/24 03:44:16;;;;;;;0.40;0.30;;;6.80;99.90;;;;;;5073276;28;20445;-87
2021/12/24 03:46:53;;;;;;;0.30;0.30;;;6.80;99.90;;;;;;5061551;28;20446;-87
2021/12/24 03:49:30;;;;;;;0.30;0.30;;;6.80;99.90;;;;;;5072344;28;20433;-86
2021/12/24 03:52:03;;;;;;;0.30;0.30;;;6.80;99.90;;;;;;5054060;28;20465;-87
2021/12/24 03:57:31;;;;;;;0.40;0.30;;;6.80;99.90;;;;;;5012507;28;20427;-87
2021/12/24 04:00:00;;;;;;;0.30;0.20;;;6.80;99.90;;;;;;5031221;28;20806;-87
2021/12/24 04:02:27;;;;;;;0.40;0.30;;;6.90;99.90;;;;;;5041978;28;20488;-87
2021/12/24 04:04:54;;;;;;;0.70;0.40;;;6.90;99.90;;;;;;5071589;28;20433;-87
2021/12/24 04:07:21;;;;;;;0.30;0.30;;;7.00;99.90;;;;;;5074328;28;20463;-87
2021/12/24 04:09:58;;;;;;;0.30;0.20;;;7.00;99.90;;;;;;5056321;28;20484;-87
2021/12/24 04:12:25;;;;;;;0.30;0.20;;;7.00;99.90;;;;;;5071586;28;20468;-87
2021/12/24 04:14:52;;;;;;;0.30;0.20;;;7.10;99.90;;;;;;5055711;28;20433;-86
2021/12/24 04:17:19;;;;;;;0.30;0.20;;;7.10;99.90;;;;;;5054132;28;20504;-87
2021/12/24 04:25:15;;;;;;;0.30;0.30;;;7.20;99.90;;;;;;5073024;28;20436;-87
2021/12/24 04:27:42;;;;;;;0.30;0.30;;;7.20;99.90;;;;;;5061443;28;20452;-86
2021/12/24 04:30:16;;;;;;;0.30;0.30;;;7.30;99.90;;;;;;5058266;28;20519;-87
2021/12/24 04:32:59;;;;;;;0.30;0.20;;;7.40;99.90;;;;;;5061046;28;20556;-86
2021/12/24 04:51:53;;;;;;;0.30;0.20;;;7.60;99.90;;;;;;5067310;28;20982;-86
2021/12/24 05:02:48;;;;;;;0.30;0.30;;;7.70;99.90;;;;;;5071594;28;20576;-87
2021/12/24 05:05:22;;;;;;;0.30;0.20;;;7.70;99.90;;;;;;5058539;28;20450;-86
2021/12/24 05:10:37;;;;;;;0.40;0.40;;;7.80;99.90;;;;;;5049868;28;20529;-87
2021/12/24 05:13:07;;;;;;;0.30;0.20;;;7.80;99.90;;;;;;5057160;28;20509;-87
2021/12/24 05:15:36;;;;;;;1.47;0.37;;;7.80;99.90;;;;;;5070918;28;20433;-87
2021/12/24 05:18:13;;;;;;;0.60;0.40;;;7.90;99.90;;;;;;5076426;28;20456;-87
2021/12/24 05:23:25;;;;;;;0.37;0.37;;;7.80;99.90;;;;;;5066454;28;20920;-87
2021/12/24 05:25:52;;;;;;;0.30;0.30;;;7.80;99.90;;;;;;5060545;28;20453;-87
2021/12/24 05:28:21;;;;;;;0.30;0.30;;;7.80;99.90;;;;;;5062457;28;20445;-87
2021/12/24 05:30:49;;;;;;;0.40;0.30;;;7.80;99.90;;;;;;5061188;28;20474;-87
2021/12/24 05:33:16;;;;;;;0.53;0.50;;;7.80;99.90;;;;;;5075907;28;20519;-87
2021/12/24 05:35:44;;;;;;;0.40;0.33;;;7.80;99.90;;;;;;5071106;28;20857;-86
2021/12/24 05:38:12;;;;;;;0.30;0.30;;;7.80;99.90;;;;;;5056662;28;20441;-86
2021/12/24 05:40:38;;;;;;;0.30;0.20;;;7.80;99.90;;;;;;5057682;28;20444;-86
2021/12/24 05:43:06;;;;;;;0.30;0.30;;;7.80;99.90;;;;;;5060675;28;20469;-87
2021/12/24 05:45:34;;;;;;;1.80;0.40;;;7.70;99.90;;;;;;5061543;28;20811;-86
2021/12/24 05:48:01;;;;;;;0.30;0.20;;;7.80;99.90;;;;;;5056533;28;20453;-86
2021/12/24 05:50:28;;;;;;;0.40;0.40;;;7.80;99.90;;;;;;5069042;28;20984;-87
2021/12/24 05:52:55;;;;;;;0.30;0.30;;;7.80;99.90;;;;;;5076463;28;20449;-86
2021/12/24 05:55:22;;;;;;;1.27;1.27;;;7.80;99.90;;;;;;5070728;28;20441;-87
2021/12/24 05:57:49;;;;;;;0.30;0.30;;;7.80;99.90;;;;;;5069767;28;20945;-86
2021/12/24 06:00:17;;;;;;;0.30;0.20;;;7.90;99.90;;;;;;5069580;28;20445;-87
2021/12/24 06:02:45;;;;;;;0.40;0.30;;;7.80;99.90;;;;;;5070560;28;20465;-86
2021/12/24 06:05:12;;;;;;;0.33;0.30;;;7.80;99.90;;;;;;5057016;28;20461;-87
2021/12/24 06:07:38;;;;;;;0.30;0.30;;;7.80;99.90;;;;;;5069541;28;20449;-86
2021/12/24 06:10:06;;;;;;;0.30;0.30;;;7.80;99.90;;;;;;5055943;28;20468;-86
2021/12/24 06:12:33;;;;;;;0.30;0.30;;;7.80;99.90;;;;;;5059083;28;20844;-86
2021/12/24 06:15:04;;;;;;;0.30;0.30;;;7.70;99.90;;;;;;5075084;28;20506;-86
2021/12/24 06:17:32;;;;;;;0.50;0.50;;;7.70;99.90;;;;;;5072684;28;20446;-87
2021/12/24 06:20:01;;;;;;;0.40;0.40;;;7.70;99.90;;;;;;5056089;28;20450;-87
2021/12/24 06:22:27;;;;;;;0.30;0.30;;;7.70;99.90;;;;;;5057813;28;20472;-87
2021/12/24 06:24:54;;;;;;;0.60;0.30;;;7.70;99.90;;;;;;5074598;28;20437;-86
2021/12/24 06:27:21;;;;;;;0.30;0.20;;;7.70;99.90;;;;;;5075047;28;20445;-87
2021/12/24 06:29:48;;;;;;;0.40;0.40;;;7.70;99.90;;;;;;5074869;28;20515;-87
2021/12/24 06:32:15;;;;;;;0.70;0.50;;;7.70;99.90;;;;;;5061593;28;20482;-87
2021/12/24 06:34:42;;;;;;;1.17;0.30;;;7.70;99.90;;;;;;5055607;28;20445;-87
2021/12/24 06:37:10;;;;;;;0.30;0.30;;;7.70;99.90;;;;;;5061930;28;20488;-87
2021/12/24 06:39:37;;;;;;;0.33;0.30;;;7.70;99.90;;;;;;5055642;28;20454;-87
2021/12/24 06:42:05;;;;;;;0.67;0.30;;;7.70;99.90;;;;;;5066621;28;20501;-87
2021/12/24 06:44:32;;;;;;;0.30;0.30;;;7.70;99.90;;;;;;5074035;28;20433;-87
2021/12/24 06:46:59;;;;;;;0.30;0.30;;;7.60;99.90;;;;;;5067783;28;20484;-87
2021/12/24 06:49:27;;;;;;;0.30;0.20;;;7.60;99.90;;;;;;5068088;28;20449;-87
2021/12/24 06:51:53;;;;;;;0.30;0.20;;;7.60;99.90;;;;;;5064831;28;20571;-87
2021/12/24 06:54:22;;;;;;;0.80;0.40;;;7.70;99.90;;;;;;5071752;28;20456;-87
2021/12/24 06:56:50;;;;;;;0.53;0.40;;;7.70;99.90;;;;;;5074349;28;20456;-87
2021/12/24 06:59:16;;;;;;;0.30;0.30;;;7.70;99.90;;;;;;5065858;28;20485;-87
2021/12/24 07:01:44;;;;;;;0.40;0.33;;;7.70;99.90;;;;;;5061662;28;20469;-86
2021/12/24 07:04:10;;;;;;;0.30;0.30;;;7.60;99.90;;;;;;5070990;28;20447;-85
2021/12/24 07:06:43;;;;;;;0.30;0.20;;;7.60;99.90;;;;;;5073638;28;20445;-86
2021/12/24 07:09:10;;;;;;;0.40;0.40;;;7.60;99.90;;;;;;5074721;28;20429;-86
2021/12/24 07:11:38;;;;;;;0.30;0.20;;;7.60;99.90;;;;;;5073793;28;20484;-86
2021/12/24 07:14:05;;;;;;;2.00;0.40;;;7.60;99.90;;;;;;5063459;28;20895;-86
2021/12/24 07:16:32;;;;;;;0.30;0.30;;;7.60;99.90;;;;;;5068181;28;20456;-86
2021/12/24 07:18:59;;;;;;;0.30;0.30;;;7.60;99.90;;;;;;5066493;28;20472;-86
2021/12/24 07:21:25;;;;;;;0.30;0.23;;;7.70;99.90;;;;;;5066142;28;20469;-86
2021/12/24 07:23:52;;;;;;;0.43;0.43;;;7.70;99.90;;;;;;5061188;28;20456;-86
2021/12/24 07:26:20;;;;;;;0.30;0.30;;;7.70;99.90;;;;;;5067588;28;20450;-86
2021/12/24 07:28:49;;;;;;;0.30;0.20;;;7.70;99.90;;;;;;5057399;28;20483;-86
2021/12/24 07:31:16;;;;;;;0.30;0.30;;;7.70;99.90;;;;;;5068454;28;20485;-86
2021/12/24 07:33:42;;;;;;;0.30;0.30;;;7.70;99.90;;;;;;5056975;28;20450;-86
2021/12/24 07:36:09;;;;;;;0.60;0.60;;;7.70;99.90;;;;;;5068004;28;20473;-87
2021/12/24 07:38:36;;;;;;;0.50;0.37;;;7.70;99.90;;;;;;5055522;28;20430;-85
2021/12/24 07:41:04;;;;;;;0.43;0.43;;;7.80;99.90;;;;;;5066963;28;20450;-86
2021/12/24 07:43:31;;;;;;;0.37;0.37;;;7.80;99.90;;;;;;5060831;28;20460;-87
2021/12/24 07:45:59;;;;;;;0.30;0.30;;;7.80;99.90;;;;;;5074222;28;20445;-87
2021/12/24 07:48:31;;;;;;;0.30;0.30;;;7.80;99.90;;;;;;5056937;28;20453;-87
2021/12/24 07:53:45;;;;;;;0.30;0.30;;;7.70;99.90;;;;;;5065270;28;20416;-86
2021/12/24 07:56:11;;;;;;;0.30;0.30;;;7.70;99.90;;;;;;5074107;28;20445;-87
2021/12/24 07:58:38;;;;;;;0.30;0.30;;;7.70;99.90;;;;;;5063015;28;20454;-86
2021/12/24 08:01:06;;;;;;;0.30;0.20;;;7.70;99.90;;;;;;5072540;28;20459;-86
2021/12/24 08:03:33;;;;;;;0.30;0.20;;;7.60;99.90;;;;;;5055583;28;20780;-85
2021/12/24 08:06:00;;;;;;;0.30;0.20;;;7.60;99.90;;;;;;5053746;28;20934;-86
2021/12/24 08:08:27;;;;;;;0.30;0.30;;;7.60;99.90;;;;;;5054278;28;20450;-86
2021/12/24 08:10:53;;;;;;;0.50;0.30;;;7.60;99.90;;;;;;5072724;28;20476;-87
2021/12/24 08:13:20;;;;;;;0.37;0.37;;;7.70;99.90;;;;;;5071892;28;20452;-86
2021/12/24 08:15:50;;;;;;;0.30;0.23;;;7.70;99.90;;;;;;5073120;28;20443;-86
2021/12/24 08:18:18;;;;;;;0.40;0.40;;;7.70;99.90;;;;;;5065594;28;20454;-87
2021/12/24 08:20:45;;;;;;;0.30;0.30;;;7.70;99.90;;;;;;5054866;28;20452;-86
2021/12/24 08:23:12;;;;;;;0.30;0.30;;;7.80;99.90;;;;;;5054083;28;20462;-87
2021/12/24 08:25:39;;;;;;;0.30;0.30;;;7.80;99.90;;;;;;5055347;28;20437;-86
2021/12/24 08:28:06;;;;;;;0.30;0.20;;;7.70;99.90;;;;;;5070069;28;20979;-87
2021/12/24 08:30:33;;;;;;;0.30;0.30;;;7.80;99.90;;;;;;5054949;28;20457;-86
2021/12/24 08:33:01;;;;;;;0.30;0.30;;;7.70;99.90;;;;;;5056170;28;20466;-87
2021/12/24 08:35:29;;;;;;;0.40;0.40;;;7.80;99.90;;;;;;5055556;28;20454;-86
2021/12/24 08:37:56;;;;;;;0.70;0.60;;;7.80;99.90;;;;;;5069890;28;20850;-87
2021/12/24 08:40:23;;;;;;;1.73;0.90;;;7.70;99.90;;;;;;5073213;28;20916;-85
2021/12/24 08:42:51;;;;;;;0.60;0.27;;;7.70;99.90;;;;;;5074808;28;20475;-87
2021/12/24 08:45:18;;;;;;;0.30;0.23;;;7.70;99.90;;;;;;5072259;28;20506;-86
2021/12/24 08:47:45;;;;;;;0.40;0.33;;;7.70;99.90;;;;;;5074663;28;20448;-87
2021/12/24 08:50:13;;;;;;;0.37;0.30;;;7.60;99.90;;;;;;5065384;28;20450;-87
2021/12/24 08:52:44;;;;;;;0.60;0.30;;;7.60;99.90;;;;;;5057153;28;20892;-86
2021/12/24 08:55:11;;;;;;;0.30;0.30;;;7.60;99.90;;;;;;5066470;28;20445;-87
2021/12/24 08:57:38;;;;;;;0.30;0.30;;;7.60;99.90;;;;;;5058719;28;20457;-86
2021/12/24 09:00:08;;;;;;;0.40;0.40;;;7.50;99.90;;;;;;5057289;28;20450;-87
2021/12/24 09:02:35;;;;;;;0.30;0.27;;;7.50;99.90;;;;;;5057253;28;20457;-87
2021/12/24 09:05:02;;;;;;;0.30;0.30;;;7.40;99.90;;;;;;5057323;28;20446;-87
2021/12/24 09:07:29;;;;;;;0.30;0.30;;;7.40;99.90;;;;;;5056964;28;20438;-86
2021/12/24 09:09:57;;;;;;;0.30;0.20;;;7.30;99.90;;;;;;5060188;28;20434;-87
2021/12/24 09:12:23;;;;;;;0.30;0.30;;;7.40;99.90;;;;;;5061008;28;20501;-87
2021/12/24 09:14:50;;;;;;;0.40;0.40;;;7.30;99.90;;;;;;5087268;28;20444;-84
2021/12/24 09:17:17;;;;;;;0.30;0.30;;;7.40;99.90;;;;;;5078507;28;20531;-87
2021/12/24 09:19:58;;;;;;;0.40;0.37;;;7.40;99.90;;;;;;5057028;28;20456;-87
2021/12/24 09:22:30;;;;;;;0.30;0.20;;;7.40;99.90;;;;;;5056966;28;20469;-88
2021/12/24 09:24:58;;;;;;;0.30;0.30;;;7.40;99.90;;;;;;5056752;28;20449;-87
2021/12/24 09:27:25;;;;;;;0.30;0.20;;;7.40;99.90;;;;;;5057353;28;20446;-87
2021/12/24 09:29:52;;;;;;;0.30;0.30;;;7.40;99.90;;;;;;5056785;28;20525;-87
2021/12/24 09:32:19;;;;;;;0.30;0.23;;;7.40;99.90;;;;;;5056519;28;20489;-88
2021/12/24 09:34:45;;;;;;;0.30;0.20;;;7.50;99.90;;;;;;5056732;28;20438;-88
2021/12/24 09:37:12;;;;;;;0.30;0.20;;;7.50;99.90;;;;;;5057469;28;20473;-87
2021/12/24 09:39:39;;;;;;;0.30;0.20;;;7.50;99.90;;;;;;5074565;28;20827;-88
2021/12/24 09:42:09;;;;;;;0.30;0.20;;;7.50;99.90;;;;;;5056452;28;20454;-87
2021/12/24 09:44:36;;;;;;;0.40;0.33;;;7.50;99.90;;;;;;5056466;28;20430;-87
2021/12/24 09:47:18;;;;;;;0.40;0.30;;;7.50;99.90;;;;;;5072409;28;20437;-87
2021/12/24 09:49:45;;;;;;;0.30;0.30;;;7.50;99.90;;;;;;5070269;28;20445;-87
2021/12/24 09:52:13;;;;;;;0.30;0.20;;;7.60;99.90;;;;;;5055693;28;21142;-87
2021/12/24 09:54:44;;;;;;;0.30;0.30;;;7.60;99.90;;;;;;5055440;28;20441;-87
2021/12/24 09:57:13;;;;;;;0.40;0.30;;;7.60;99.90;;;;;;5056745;28;20946;-87
2021/12/24 09:59:40;;;;;;;0.53;0.40;;;7.60;99.90;;;;;;5055833;28;20441;-87
2021/12/24 10:02:14;;;;;;;0.53;0.30;;;7.60;99.90;;;;;;5055057;28;20477;-86
2021/12/24 10:04:41;;;;;;;0.30;0.30;;;7.60;99.90;;;;;;5055061;28;20446;-86
2021/12/24 10:07:10;;;;;;;0.40;0.40;;;7.60;99.90;;;;;;5055394;28;20438;-86
2021/12/24 10:09:39;;;;;;;0.30;0.20;;;7.60;99.90;;;;;;5055555;28;20826;-86
2021/12/24 10:12:09;;;;;;;0.37;0.30;;;7.60;99.90;;;;;;5055299;28;20995;-87
2021/12/24 10:14:39;;;;;;;0.30;0.20;;;7.60;99.90;;;;;;5054941;28;20433;-86
2021/12/24 10:17:14;;;;;;;0.30;0.20;;;7.60;99.90;;;;;;5055544;28;20434;-86
2021/12/24 10:19:46;;;;;;;0.50;0.50;;;7.60;99.90;;;;;;5054685;28;20445;-86
2021/12/24 10:22:14;;;;;;;0.40;0.30;;;7.70;99.90;;;;;;5068780;28;20468;-86
2021/12/24 10:24:42;;;;;;;0.30;0.20;;;7.70;99.90;;;;;;5072622;28;20455;-86
2021/12/24 10:27:09;;;;;;;0.30;0.20;;;7.70;99.90;;;;;;5069721;28;20460;-82
2021/12/24 10:29:41;;;;;;;0.40;0.30;;;7.70;99.90;;;;;;5062585;28;20943;-81
2021/12/24 10:32:11;;;;;;;0.40;0.30;;;7.70;99.90;;;;;;5061198;28;21046;-82
2021/12/24 10:34:39;;;;;;;0.57;0.57;;;7.70;99.90;;;;;;5070550;28;20848;-81
2021/12/24 10:37:15;;;;;;;0.50;0.50;;;7.60;99.90;;;;;;5060082;28;20474;-81
2021/12/24 10:39:49;;;;;;;0.30;0.23;;;7.60;99.90;;;;;;5054355;28;20449;-81
2021/12/24 10:42:22;;;;;;;0.30;0.30;;;7.70;99.90;;;;;;5061175;28;20460;-89
2021/12/24 10:44:53;;;;;;;0.30;0.30;;;7.70;99.90;;;;;;5067848;28;20461;-88
2021/12/24 10:47:22;;;;;;;0.30;0.20;;;7.70;99.90;;;;;;5067634;28;20473;-88
2021/12/24 10:50:11;;;;;;;1.57;0.40;;;7.70;99.90;;;;;;5063461;28;20452;-92
2021/12/24 10:53:01;;;;;;;0.30;0.30;;;7.70;99.90;;;;;;5062297;28;20556;-89
2021/12/24 10:55:34;;;;;;;0.30;0.30;;;7.70;99.90;;;;;;5059550;28;20449;-88
2021/12/24 10:58:03;;;;;;;0.30;0.30;;;7.70;99.90;;;;;;5062204;28;20449;-91
2021/12/24 11:00:35;;;;;;;0.30;0.30;;;7.70;99.90;;;;;;5065786;28;20456;-91
2021/12/24 11:03:06;;;;;;;0.60;0.30;;;7.60;99.90;;;;;;5064029;28;20544;-88
2021/12/24 11:05:36;;;;;;;0.33;0.30;;;7.60;99.90;;;;;;5062438;28;20441;-89
2021/12/24 11:08:06;;;;;;;0.40;0.30;;;7.60;99.90;;;;;;5072738;28;20960;-88
2021/12/24 11:10:34;;;;;;;0.30;0.20;;;7.60;99.90;;;;;;5055810;28;20945;-88
2021/12/24 11:13:08;;;;;;;0.30;0.20;;;7.70;99.90;;;;;;5068926;28;20477;-86
2021/12/24 11:15:38;;;;;;;0.40;0.40;;;7.70;99.90;;;;;;5087505;28;20465;-86
2021/12/24 11:18:07;;;;;;;0.30;0.20;;;7.70;99.90;;;;;;5085938;28;20489;-85
2021/12/24 11:20:34;;;;;;;0.30;0.20;;;7.60;99.90;;;;;;5066633;28;20451;-86
2021/12/24 11:23:08;;;;;;;0.30;0.20;;;7.70;99.90;;;;;;5068198;28;20458;-86
2021/12/24 11:25:37;;;;;;;0.30;0.30;;;7.70;99.90;;;;;;5068425;28;20507;-86
2021/12/24 11:28:06;;;;;;;0.30;0.30;;;7.70;99.90;;;;;;5063437;28;20453;-84
2021/12/24 11:30:36;;;;;;;0.30;0.20;;;7.80;99.90;;;;;;5062212;28;20444;-86
2021/12/24 11:33:03;;;;;;;0.30;0.20;;;7.80;99.90;;;;;;5068320;28;20481;-86
2021/12/24 11:35:31;;;;;;;0.30;0.30;;;7.80;99.90;;;;;;5061514;28;20458;-86
2021/12/24 11:38:00;;;;;;;0.30;0.30;;;7.80;99.90;;;;;;5071732;28;20473;-85
2021/12/24 11:40:28;;;;;;;0.30;0.30;;;7.80;99.90;;;;;;5054966;28;20445;-85
2021/12/24 11:42:58;;;;;;;0.30;0.30;;;7.90;99.90;;;;;;5058777;28;20465;-86
2021/12/24 11:45:28;;;;;;;0.30;0.20;;;7.90;99.90;;;;;;5064691;28;20873;-85
2021/12/24 11:47:56;;;;;;;0.30;0.30;;;7.90;99.90;;;;;;5070417;28;20807;-85
2021/12/24 11:50:25;;;;;;;0.30;0.30;;;8.00;99.90;;;;;;5065311;28;20823;-85
2021/12/24 11:52:55;;;;;;;0.30;0.20;;;8.00;99.90;;;;;;5060400;28;20973;-85
2021/12/24 11:55:24;;;;;;;0.30;0.20;;;8.00;99.90;;;;;;5057227;28;20479;-86
2021/12/24 11:57:53;;;;;;;0.30;0.20;;;8.00;99.90;;;;;;5063907;28;20448;-85
2021/12/24 12:00:27;;;;;;;0.30;0.20;;;8.10;99.90;;;;;;5072078;28;20455;-85
2021/12/24 12:02:55;;;;;;;0.40;0.40;;;8.10;99.90;;;;;;5061895;28;20472;-86
2021/12/24 12:05:26;;;;;;;0.30;0.30;;;8.10;99.90;;;;;;5058437;28;20524;-86
2021/12/24 12:08:38;;;;;;;0.30;0.20;;;8.20;99.90;;;;;;5057000;28;20528;-86
2021/12/24 12:11:16;;;;;;;0.40;0.30;;;8.30;99.90;;;;;;5064476;28;20540;-83
2021/12/24 12:13:53;;;;;;;0.63;0.57;;;8.40;99.90;;;;;;5070783;28;20468;-82
2021/12/24 12:16:22;;;;;;;0.33;0.27;;;8.40;99.90;;;;;;5058677;28;20472;-81
2021/12/24 12:19:09;;;;;;;0.30;0.20;;;8.40;99.90;;;;;;5056885;28;20464;-81
2021/12/24 12:21:39;;;;;;;0.30;0.20;;;8.40;99.90;;;;;;5060555;28;21022;-81
2021/12/24 12:27:02;;;;;;;0.40;0.30;;;8.40;99.90;;;;;;5068172;28;20464;-82
2021/12/24 12:29:41;;;;;;;1.03;0.30;;;8.50;99.90;;;;;;5060929;28;20453;-82
2021/12/24 12:32:41;;;;;;;0.30;0.30;;;8.40;99.90;;;;;;5075632;28;20480;-80
2021/12/24 12:35:10;;;;;;;0.30;0.30;;;8.40;99.90;;;;;;5014618;28;20443;-82
2021/12/24 12:37:47;;;;;;;0.30;0.30;;;8.40;99.90;;;;;;5013969;28;20490;-84
2021/12/24 12:40:36;;;;;;;0.30;0.30;;;8.50;99.90;;;;;;5041734;28;20463;-81
2021/12/24 12:43:12;;;;;;;0.30;0.20;;;8.50;99.90;;;;;;5061231;28;20845;-84
2021/12/24 12:46:03;;;;;;;0.30;0.20;;;8.60;99.90;;;;;;5070493;28;20467;-82
2021/12/24 12:48:51;;;;;;;0.30;0.20;;;8.60;99.90;;;;;;5070392;28;20441;-82
2021/12/24 12:51:22;;;;;;;0.30;0.20;;;8.60;99.90;;;;;;5062659;28;20526;-82
2021/12/24 12:53:51;;;;;;;0.50;0.30;;;8.60;99.90;;;;;;5066319;28;20464;-81
2021/12/24 12:56:21;;;;;;;0.30;0.30;;;8.60;99.90;;;;;;5065665;28;20449;-81
2021/12/24 12:58:50;;;;;;;0.30;0.20;;;8.60;99.90;;;;;;5073700;28;20449;-81
2021/12/24 13:01:19;;;;;;;0.30;0.20;;;8.70;99.90;;;;;;5063749;28;20476;-81
2021/12/24 13:04:26;;;;;;;0.30;0.30;;;8.70;99.90;;;;;;5072462;28;20445;-81
2021/12/24 13:06:57;;;;;;;0.30;0.20;;;8.80;99.90;;;;;;5063582;28;20444;-81
2021/12/24 13:09:32;;;;;;;0.40;0.30;;;8.70;99.90;;;;;;5068968;28;20452;-81
2021/12/24 13:12:04;;;;;;;0.30;0.20;;;8.70;99.90;;;;;;5073595;28;20831;-81
2021/12/24 13:14:35;;;;;;;0.30;0.30;;;8.60;99.90;;;;;;5069109;28;20453;-81
2021/12/24 13:17:18;;;;;;;0.30;0.30;;;8.60;99.90;;;;;;5067998;28;20461;-81
2021/12/24 13:20:10;;;;;;;0.30;0.27;;;8.70;99.90;;;;;;5055864;28;20434;-81
2021/12/24 13:22:38;;;;;;;0.30;0.30;;;8.70;99.90;;;;;;5055843;28;20457;-81
2021/12/24 13:25:14;;;;;;;0.30;0.20;;;8.70;99.90;;;;;;5055887;28;20436;-81
2021/12/24 13:27:44;;;;;;;0.30;0.20;;;8.70;99.90;;;;;;5055028;28;20842;-80
2021/12/24 13:30:15;;;;;;;0.40;0.30;;;8.60;99.90;;;;;;5055475;28;20496;-81
2021/12/24 13:32:44;;;;;;;0.40;0.30;;;8.60;99.90;;;;;;5055627;28;20539;-81
2021/12/24 13:35:12;;;;;;;0.33;0.30;;;8.60;99.90;;;;;;5055513;28;20421;-81
2021/12/24 13:37:45;;;;;;;0.30;0.27;;;8.60;99.90;;;;;;5055315;28;20478;-81
2021/12/24 13:40:16;;;;;;;0.30;0.20;;;8.60;99.90;;;;;;5055348;28;21008;-81
2021/12/24 13:42:46;;;;;;;0.30;0.20;;;8.50;99.90;;;;;;5055469;28;20461;-81
2021/12/24 13:45:14;;;;;;;0.30;0.30;;;8.50;99.90;;;;;;5067060;28;20846;-81
2021/12/24 13:47:53;;;;;;;0.30;0.20;;;8.50;99.90;;;;;;5075487;28;20429;-81
2021/12/24 13:54:30;;;;;;;0.30;0.20;;;8.40;99.90;;;;;;5075506;28;20788;-81
2021/12/24 13:56:01;;;;;;;0.30;0.20;;;8.40;99.90;;;;;;5073154;28;20452;-82
2021/12/24 13:58:28;;;;;;;0.30;0.30;;;8.40;99.90;;;;;;5059366;28;20826;-80
2021/12/24 14:00:57;;;;;;;0.30;0.30;;;8.50;99.90;;;;;;5056972;28;20445;-82
2021/12/24 14:03:25;;;;;;;0.30;0.20;;;8.50;99.90;;;;;;5055149;28;20426;-81
2021/12/24 14:05:56;;;;;;;0.30;0.20;;;8.50;99.90;;;;;;5054913;28;20442;-81
2021/12/24 14:08:26;;;;;;;0.30;0.30;;;8.50;99.90;;;;;;5058977;28;20800;-81
2021/12/24 14:11:05;;;;;;;0.40;0.37;;;8.50;99.90;;;;;;5054984;28;20664;-81
2021/12/24 14:13:37;;;;;;;0.30;0.30;;;8.60;99.90;;;;;;5054840;28;20480;-82
2021/12/24 14:16:17;;;;;;;0.30;0.30;;;8.60;99.90;;;;;;5054884;28;20526;-81
2021/12/24 14:18:50;;;;;;;0.30;0.30;;;8.60;99.90;;;;;;5054857;28;20445;-81
2021/12/24 14:21:49;;;;;;;0.30;0.20;;;8.60;99.90;;;;;;5054684;28;20563;-81
2021/12/24 14:24:31;;;;;;;0.30;0.23;;;8.60;99.90;;;;;;5054525;28;20431;-82
2021/12/24 14:27:00;;;;;;;0.30;0.20;;;8.60;99.90;;;;;;5054444;28;20442;-81
2021/12/24 14:29:34;;;;;;;0.30;0.20;;;8.60;99.90;;;;;;5054432;28;20945;-82
2021/12/24 14:32:02;;;;;;;0.30;0.20;;;8.60;99.90;;;;;;5059905;28;21018;-81
2021/12/24 14:34:37;;;;;;;0.30;0.30;;;8.70;99.90;;;;;;5074252;28;20476;-81
2021/12/24 14:37:06;;;;;;;0.30;0.20;;;8.70;99.90;;;;;;5073759;28;20480;-81